<?xml version="1.0" encoding="utf-8"?>
<gpx xmlns:xsi="http://www.w3.org/2001/XMLSchema-instance" xmlns:xsd="http://www.w3.org/2001/XMLSchema" version="1.1" creator="Shapelink.com" xmlns="http://www.topografix.com/GPX/1/1" xmlns:gpxtpx="http://www.garmin.com/xmlschemas/TrackPointExtension/v1">
  <metadata>
    <name>Gåing 3.00 km, 2012-03-10</name>
    <desc></desc>
    <author><name>Mikael Blom</name></author> 
    <time>2012-03-10T11:29:05Z</time>
  </metadata>
  <trk>
    <name>Gåing 3.00 km, 2012-03-10</name>
    <trkseg>
      <trkpt lat="59.9851996" lon="17.7382053">
        <ele>66.949</ele>
        <time>2012-03-10T11:29:05Z</time>
      </trkpt>
      <trkpt lat="59.9853841" lon="17.7380924">
        <ele>57.3358</ele>
        <time>2012-03-10T11:29:11Z</time>
      </trkpt>
      <trkpt lat="59.9852853" lon="17.7380335">
        <ele>58.7777</ele>
        <time>2012-03-10T11:29:16Z</time>
      </trkpt>
      <trkpt lat="59.985204" lon="17.7380277">
        <ele>57.8165</ele>
        <time>2012-03-10T11:29:22Z</time>
      </trkpt>
      <trkpt lat="59.9851614" lon="17.7380412">
        <ele>56.8551</ele>
        <time>2012-03-10T11:29:25Z</time>
      </trkpt>
      <trkpt lat="59.9850351" lon="17.7380986">
        <ele>60.2197</ele>
        <time>2012-03-10T11:29:29Z</time>
      </trkpt>
      <trkpt lat="59.9848912" lon="17.7380896">
        <ele>60.7003</ele>
        <time>2012-03-10T11:29:35Z</time>
      </trkpt>
      <trkpt lat="59.9848769" lon="17.7380236">
        <ele>56.3745</ele>
        <time>2012-03-10T11:29:41Z</time>
      </trkpt>
      <trkpt lat="59.9848477" lon="17.7379728">
        <ele>54.9324</ele>
        <time>2012-03-10T11:29:45Z</time>
      </trkpt>
      <trkpt lat="59.9848377" lon="17.7379722">
        <ele>54.9324</ele>
        <time>2012-03-10T11:29:46Z</time>
      </trkpt>
      <trkpt lat="59.9847187" lon="17.7379944">
        <ele>55.4131</ele>
        <time>2012-03-10T11:29:53Z</time>
      </trkpt>
      <trkpt lat="59.984664" lon="17.7380283">
        <ele>56.8551</ele>
        <time>2012-03-10T11:29:55Z</time>
      </trkpt>
      <trkpt lat="59.9844903" lon="17.7379696">
        <ele>59.7391</ele>
        <time>2012-03-10T11:30:01Z</time>
      </trkpt>
      <trkpt lat="59.9843825" lon="17.7379246">
        <ele>60.7003</ele>
        <time>2012-03-10T11:30:07Z</time>
      </trkpt>
      <trkpt lat="59.9842887" lon="17.7379106">
        <ele>59.7391</ele>
        <time>2012-03-10T11:30:13Z</time>
      </trkpt>
      <trkpt lat="59.9842033" lon="17.7379091">
        <ele>57.8165</ele>
        <time>2012-03-10T11:30:18Z</time>
      </trkpt>
      <trkpt lat="59.9841421" lon="17.7379144">
        <ele>58.2971</ele>
        <time>2012-03-10T11:30:21Z</time>
      </trkpt>
      <trkpt lat="59.9841316" lon="17.7378983">
        <ele>58.2971</ele>
        <time>2012-03-10T11:30:23Z</time>
      </trkpt>
      <trkpt lat="59.9840561" lon="17.7379399">
        <ele>56.8551</ele>
        <time>2012-03-10T11:30:28Z</time>
      </trkpt>
      <trkpt lat="59.9839052" lon="17.7379658">
        <ele>56.8551</ele>
        <time>2012-03-10T11:30:35Z</time>
      </trkpt>
      <trkpt lat="59.9837832" lon="17.7379987">
        <ele>57.8165</ele>
        <time>2012-03-10T11:30:40Z</time>
      </trkpt>
      <trkpt lat="59.983657" lon="17.7380561">
        <ele>58.7777</ele>
        <time>2012-03-10T11:30:46Z</time>
      </trkpt>
      <trkpt lat="59.9835893" lon="17.7380672">
        <ele>58.2971</ele>
        <time>2012-03-10T11:30:51Z</time>
      </trkpt>
      <trkpt lat="59.9835239" lon="17.7380475">
        <ele>58.2971</ele>
        <time>2012-03-10T11:30:57Z</time>
      </trkpt>
      <trkpt lat="59.9833944" lon="17.7381101">
        <ele>59.2584</ele>
        <time>2012-03-10T11:31:05Z</time>
      </trkpt>
      <trkpt lat="59.9832848" lon="17.738162">
        <ele>61.181</ele>
        <time>2012-03-10T11:31:11Z</time>
      </trkpt>
      <trkpt lat="59.9831677" lon="17.7381787">
        <ele>63.5844</ele>
        <time>2012-03-10T11:31:18Z</time>
      </trkpt>
      <trkpt lat="59.9830808" lon="17.7380998">
        <ele>62.6229</ele>
        <time>2012-03-10T11:31:25Z</time>
      </trkpt>
      <trkpt lat="59.9830608" lon="17.7381075">
        <ele>62.6229</ele>
        <time>2012-03-10T11:31:26Z</time>
      </trkpt>
      <trkpt lat="59.9830247" lon="17.738106">
        <ele>61.181</ele>
        <time>2012-03-10T11:31:32Z</time>
      </trkpt>
      <trkpt lat="59.9829273" lon="17.7380951">
        <ele>65.0264</ele>
        <time>2012-03-10T11:31:38Z</time>
      </trkpt>
      <trkpt lat="59.9827637" lon="17.7380855">
        <ele>66.4683</ele>
        <time>2012-03-10T11:31:45Z</time>
      </trkpt>
      <trkpt lat="59.9826788" lon="17.7380754">
        <ele>64.5457</ele>
        <time>2012-03-10T11:31:49Z</time>
      </trkpt>
      <trkpt lat="59.9825804" lon="17.7380285">
        <ele>62.1423</ele>
        <time>2012-03-10T11:31:55Z</time>
      </trkpt>
      <trkpt lat="59.9825419" lon="17.7380301">
        <ele>60.7003</ele>
        <time>2012-03-10T11:31:58Z</time>
      </trkpt>
      <trkpt lat="59.982358" lon="17.7381158">
        <ele>63.1036</ele>
        <time>2012-03-10T11:32:04Z</time>
      </trkpt>
      <trkpt lat="59.9821857" lon="17.7381391">
        <ele>61.6617</ele>
        <time>2012-03-10T11:32:12Z</time>
      </trkpt>
      <trkpt lat="59.9820674" lon="17.73818">
        <ele>60.2197</ele>
        <time>2012-03-10T11:32:19Z</time>
      </trkpt>
      <trkpt lat="59.9820382" lon="17.7382022">
        <ele>58.2971</ele>
        <time>2012-03-10T11:32:22Z</time>
      </trkpt>
      <trkpt lat="59.981922" lon="17.7382571">
        <ele>57.8165</ele>
        <time>2012-03-10T11:32:30Z</time>
      </trkpt>
      <trkpt lat="59.9818466" lon="17.7383183">
        <ele>57.3358</ele>
        <time>2012-03-10T11:32:36Z</time>
      </trkpt>
      <trkpt lat="59.9817518" lon="17.7383944">
        <ele>56.8551</ele>
        <time>2012-03-10T11:32:42Z</time>
      </trkpt>
      <trkpt lat="59.9816534" lon="17.738426">
        <ele>55.8938</ele>
        <time>2012-03-10T11:32:47Z</time>
      </trkpt>
      <trkpt lat="59.9815545" lon="17.7384899">
        <ele>56.3745</ele>
        <time>2012-03-10T11:32:52Z</time>
      </trkpt>
      <trkpt lat="59.9814789" lon="17.738554">
        <ele>57.3358</ele>
        <time>2012-03-10T11:32:57Z</time>
      </trkpt>
      <trkpt lat="59.981424" lon="17.7386365">
        <ele>60.2197</ele>
        <time>2012-03-10T11:33:01Z</time>
      </trkpt>
      <trkpt lat="59.9812771" lon="17.7386043">
        <ele>62.6229</ele>
        <time>2012-03-10T11:33:08Z</time>
      </trkpt>
      <trkpt lat="59.9811661" lon="17.7386012">
        <ele>62.1423</ele>
        <time>2012-03-10T11:33:14Z</time>
      </trkpt>
      <trkpt lat="59.9810857" lon="17.7386325">
        <ele>63.1036</ele>
        <time>2012-03-10T11:33:17Z</time>
      </trkpt>
      <trkpt lat="59.9809862" lon="17.7385653">
        <ele>65.9877</ele>
        <time>2012-03-10T11:33:22Z</time>
      </trkpt>
      <trkpt lat="59.9808447" lon="17.7386488">
        <ele>67.4297</ele>
        <time>2012-03-10T11:33:27Z</time>
      </trkpt>
      <trkpt lat="59.9807368" lon="17.7387385">
        <ele>68.3909</ele>
        <time>2012-03-10T11:33:31Z</time>
      </trkpt>
      <trkpt lat="59.9807264" lon="17.7387388">
        <ele>68.8716</ele>
        <time>2012-03-10T11:33:32Z</time>
      </trkpt>
      <trkpt lat="59.9806529" lon="17.7387569">
        <ele>69.8329</ele>
        <time>2012-03-10T11:33:36Z</time>
      </trkpt>
      <trkpt lat="59.9805709" lon="17.738831">
        <ele>68.3909</ele>
        <time>2012-03-10T11:33:42Z</time>
      </trkpt>
      <trkpt lat="59.980449" lon="17.7388311">
        <ele>67.4297</ele>
        <time>2012-03-10T11:33:48Z</time>
      </trkpt>
      <trkpt lat="59.9803488" lon="17.7388777">
        <ele>69.8329</ele>
        <time>2012-03-10T11:33:54Z</time>
      </trkpt>
      <trkpt lat="59.9802461" lon="17.7388762">
        <ele>71.2749</ele>
        <time>2012-03-10T11:34:01Z</time>
      </trkpt>
      <trkpt lat="59.9801793" lon="17.7388792">
        <ele>69.8329</ele>
        <time>2012-03-10T11:34:06Z</time>
      </trkpt>
      <trkpt lat="59.9801089" lon="17.7388729">
        <ele>69.3523</ele>
        <time>2012-03-10T11:34:10Z</time>
      </trkpt>
      <trkpt lat="59.9800674" lon="17.7388467">
        <ele>69.3523</ele>
        <time>2012-03-10T11:34:15Z</time>
      </trkpt>
      <trkpt lat="59.9799638" lon="17.7388483">
        <ele>67.9103</ele>
        <time>2012-03-10T11:34:21Z</time>
      </trkpt>
      <trkpt lat="59.979925" lon="17.738849">
        <ele>66.4683</ele>
        <time>2012-03-10T11:34:23Z</time>
      </trkpt>
      <trkpt lat="59.9798188" lon="17.7388263">
        <ele>63.5844</ele>
        <time>2012-03-10T11:34:29Z</time>
      </trkpt>
      <trkpt lat="59.9797188" lon="17.7388327">
        <ele>64.0651</ele>
        <time>2012-03-10T11:34:34Z</time>
      </trkpt>
      <trkpt lat="59.9796134" lon="17.7388766">
        <ele>64.5457</ele>
        <time>2012-03-10T11:34:40Z</time>
      </trkpt>
      <trkpt lat="59.9795596" lon="17.7388827">
        <ele>64.0651</ele>
        <time>2012-03-10T11:34:45Z</time>
      </trkpt>
      <trkpt lat="59.9795421" lon="17.7388903">
        <ele>62.6229</ele>
        <time>2012-03-10T11:34:50Z</time>
      </trkpt>
      <trkpt lat="59.9794878" lon="17.7389404">
        <ele>60.2197</ele>
        <time>2012-03-10T11:34:57Z</time>
      </trkpt>
      <trkpt lat="59.9793758" lon="17.7389848">
        <ele>58.2971</ele>
        <time>2012-03-10T11:35:03Z</time>
      </trkpt>
      <trkpt lat="59.9792403" lon="17.7391025">
        <ele>56.8551</ele>
        <time>2012-03-10T11:35:09Z</time>
      </trkpt>
      <trkpt lat="59.9791184" lon="17.7391755">
        <ele>56.8551</ele>
        <time>2012-03-10T11:35:14Z</time>
      </trkpt>
      <trkpt lat="59.9790037" lon="17.7392818">
        <ele>57.3358</ele>
        <time>2012-03-10T11:35:19Z</time>
      </trkpt>
      <trkpt lat="59.9789201" lon="17.7393724">
        <ele>57.3358</ele>
        <time>2012-03-10T11:35:24Z</time>
      </trkpt>
      <trkpt lat="59.9788145" lon="17.7394542">
        <ele>57.3358</ele>
        <time>2012-03-10T11:35:29Z</time>
      </trkpt>
      <trkpt lat="59.978676" lon="17.7395205">
        <ele>58.7777</ele>
        <time>2012-03-10T11:35:36Z</time>
      </trkpt>
      <trkpt lat="59.9786246" lon="17.7395078">
        <ele>59.2584</ele>
        <time>2012-03-10T11:35:39Z</time>
      </trkpt>
      <trkpt lat="59.9785631" lon="17.739502">
        <ele>58.2971</ele>
        <time>2012-03-10T11:35:45Z</time>
      </trkpt>
      <trkpt lat="59.9785496" lon="17.7394826">
        <ele>57.8165</ele>
        <time>2012-03-10T11:35:48Z</time>
      </trkpt>
    </trkseg>
  </trk>
</gpx>